createdAt,value
2022-07-31T00:00:49.193Z,77.75
2022-07-31T00:03:17.458Z,77.78
2022-07-31T00:05:48.919Z,77.89
2022-07-31T00:08:19.343Z,77.99
2022-07-31T00:10:48.595Z,77.92
2022-07-31T00:13:16.935Z,77.71
2022-07-31T00:15:44.960Z,77.67
2022-07-31T00:18:13.001Z,77.91
2022-07-31T00:20:41.249Z,78.10
2022-07-31T00:23:11.822Z,78.40
2022-07-31T00:25:48.547Z,78.80
2022-07-31T00:28:16.590Z,79.00
2022-07-31T00:30:45.058Z,79.18
2022-07-31T00:33:13.196Z,79.77
2022-07-31T00:35:41.231Z,80.36
2022-07-31T00:38:27.107Z,80.43
2022-07-31T00:40:57.025Z,80.25
2022-07-31T00:43:27.448Z,80.14
2022-07-31T00:45:59.542Z,80.10
2022-07-31T00:48:29.119Z,80.22
2022-07-31T00:50:58.042Z,80.34
2022-07-31T00:53:26.374Z,80.53
2022-07-31T00:55:57.555Z,80.87
2022-07-31T00:58:26.123Z,80.87
2022-07-31T01:00:54.497Z,80.99
2022-07-31T01:03:22.593Z,80.98
2022-07-31T01:05:50.673Z,80.91
2022-07-31T01:08:18.889Z,81.09
2022-07-31T01:10:53.845Z,81.34
2022-07-31T01:13:32.076Z,81.70
2022-07-31T01:16:01.349Z,82.22
2022-07-31T01:18:32.375Z,82.43
2022-07-31T01:21:04.563Z,82.59
2022-07-31T01:23:50.182Z,82.89
2022-07-31T01:26:33.189Z,83.03
2022-07-31T01:29:09.884Z,83.18
2022-07-31T01:31:43.253Z,83.35
2022-07-31T01:34:15.876Z,83.34
2022-07-31T01:36:49.821Z,83.26
2022-07-31T01:39:19.747Z,83.34
2022-07-31T01:41:48.831Z,83.45
2022-07-31T01:44:20.282Z,83.49
2022-07-31T01:46:49.293Z,83.58
2022-07-31T01:49:19.082Z,83.84
2022-07-31T01:51:49.205Z,83.95
2022-07-31T01:54:19.639Z,83.96
2022-07-31T01:56:49.569Z,83.99
2022-07-31T01:59:22.835Z,83.73
2022-07-31T02:01:53.461Z,83.57
2022-07-31T02:04:22.287Z,83.63
2022-07-31T02:06:51.041Z,83.76
2022-07-31T02:09:20.968Z,83.87
2022-07-31T02:11:54.800Z,84.17
2022-07-31T02:14:26.413Z,84.38
2022-07-31T02:16:55.221Z,84.56
2022-07-31T02:19:23.909Z,85.13
2022-07-31T02:21:52.207Z,85.37
2022-07-31T02:24:20.605Z,85.32
2022-07-31T02:26:50.159Z,85.39
2022-07-31T02:29:20.368Z,85.19
2022-07-31T02:32:03.133Z,84.90
2022-07-31T02:34:33.194Z,84.88
2022-07-31T02:37:02.027Z,85.11
2022-07-31T02:39:31.492Z,85.20
2022-07-31T02:42:01.918Z,85.12
2022-07-31T02:44:34.720Z,85.10
2022-07-31T02:47:05.806Z,84.84
2022-07-31T02:49:34.429Z,85.13
2022-07-31T02:52:04.646Z,85.19
2022-07-31T02:54:34.783Z,85.52
2022-07-31T02:57:04.314Z,85.67
2022-07-31T02:59:33.158Z,85.73
2022-07-31T03:02:01.547Z,86.03
2022-07-31T03:04:31.153Z,86.14
2022-07-31T03:06:59.360Z,86.64
2022-07-31T03:09:27.815Z,86.71
2022-07-31T03:11:57.208Z,86.61
2022-07-31T03:14:33.490Z,86.84
2022-07-31T03:17:01.849Z,86.93
2022-07-31T03:19:32.299Z,86.72
2022-07-31T03:22:01.427Z,86.84
2022-07-31T03:24:30.091Z,87.32
2022-07-31T03:26:58.257Z,87.20
2022-07-31T03:29:36.100Z,87.33
2022-07-31T03:32:11.853Z,87.55
2022-07-31T03:34:41.400Z,87.61
2022-07-31T03:37:10.251Z,87.60
2022-07-31T03:39:38.399Z,87.44
2022-07-31T03:42:07.117Z,87.30
2022-07-31T03:44:42.000Z,87.11
2022-07-31T03:47:10.342Z,86.98
2022-07-31T03:49:39.372Z,86.87
2022-07-31T03:52:12.302Z,87.02
2022-07-31T03:54:41.128Z,87.11
2022-07-31T03:57:09.741Z,87.04
2022-07-31T03:59:40.722Z,87.00
2022-07-31T04:02:18.857Z,86.56
2022-07-31T04:04:47.892Z,85.58
2022-07-31T04:07:17.747Z,84.58
2022-07-31T04:09:46.305Z,83.17
2022-07-31T04:12:17.131Z,81.60
2022-07-31T04:14:47.402Z,79.91
2022-07-31T04:17:16.027Z,78.23
2022-07-31T04:19:44.102Z,76.75
2022-07-31T04:22:12.267Z,75.39
2022-07-31T04:24:41.760Z,74.15
2022-07-31T04:27:12.920Z,72.75
2022-07-31T04:29:41.789Z,71.28
2022-07-31T04:32:10.275Z,69.99
2022-07-31T04:34:38.877Z,68.57
2022-07-31T04:37:07.140Z,67.36
2022-07-31T04:39:37.100Z,65.66
2022-07-31T04:42:11.119Z,64.38
2022-07-31T04:44:39.600Z,63.42
2022-07-31T04:47:07.981Z,62.54
2022-07-31T04:49:36.411Z,61.10
2022-07-31T04:52:05.914Z,60.53
2022-07-31T04:54:34.801Z,59.63
2022-07-31T04:57:03.927Z,58.58
2022-07-31T04:59:59.781Z,57.78
2022-07-31T05:02:21.781Z,57.06
2022-07-31T05:04:54.339Z,56.33
2022-07-31T05:07:27.557Z,55.56
2022-07-31T05:09:58.702Z,55.12
2022-07-31T05:12:27.152Z,54.67
2022-07-31T05:14:56.532Z,54.14
2022-07-31T05:17:24.728Z,54.18
2022-07-31T05:19:54.059Z,53.91
2022-07-31T05:22:22.273Z,53.41
2022-07-31T05:24:50.275Z,52.96
2022-07-31T05:27:18.361Z,52.66
2022-07-31T05:29:46.704Z,52.13
2022-07-31T05:32:16.701Z,51.50
2022-07-31T05:34:45.583Z,51.08
2022-07-31T05:37:13.676Z,50.74
2022-07-31T05:39:41.895Z,50.17
2022-07-31T05:42:10.234Z,49.93
2022-07-31T05:44:38.613Z,49.47
2022-07-31T05:47:08.361Z,49.39
2022-07-31T05:49:37.810Z,49.29
2022-07-31T05:52:06.972Z,48.79
2022-07-31T05:54:36.233Z,48.74
2022-07-31T05:57:04.425Z,48.76
2022-07-31T05:59:33.090Z,48.42
2022-07-31T06:02:01.605Z,48.04
2022-07-31T06:04:30.324Z,47.84
2022-07-31T06:06:59.719Z,47.78
2022-07-31T06:09:27.922Z,47.27
2022-07-31T06:11:58.346Z,47.07
2022-07-31T06:14:26.536Z,46.45
2022-07-31T06:16:54.811Z,45.79
2022-07-31T06:19:24.554Z,45.44
2022-07-31T06:22:02.021Z,44.83
2022-07-31T06:24:32.102Z,44.34
2022-07-31T06:27:04.570Z,44.13
2022-07-31T06:29:41.767Z,44.00
2022-07-31T06:32:10.627Z,43.59
2022-07-31T06:34:39.367Z,43.33
2022-07-31T06:37:07.506Z,42.93
2022-07-31T06:39:54.832Z,42.73
2022-07-31T06:42:25.018Z,42.52
2022-07-31T06:44:53.562Z,42.68
2022-07-31T06:47:23.810Z,42.46
2022-07-31T06:49:52.580Z,42.44
2022-07-31T06:52:21.030Z,42.40
2022-07-31T06:54:50.873Z,42.17
2022-07-31T06:57:18.946Z,42.16
2022-07-31T06:59:46.973Z,42.44
2022-07-31T07:02:15.121Z,42.94
2022-07-31T07:05:05.940Z,43.14
2022-07-31T07:07:32.299Z,43.19
2022-07-31T07:10:01.695Z,43.25
2022-07-31T07:12:29.971Z,43.19
2022-07-31T07:14:58.083Z,43.47
2022-07-31T07:17:29.309Z,43.29
2022-07-31T07:19:58.782Z,43.44
2022-07-31T07:22:30.068Z,43.22
2022-07-31T07:25:01.923Z,43.08
2022-07-31T07:27:30.333Z,42.84
2022-07-31T07:30:00.389Z,42.91
2022-07-31T07:32:28.464Z,42.49
2022-07-31T07:34:59.876Z,43.21
2022-07-31T07:37:30.777Z,43.12
2022-07-31T07:40:10.915Z,42.26
2022-07-31T07:42:38.975Z,41.60
2022-07-31T07:45:08.914Z,41.15
2022-07-31T07:48:05.278Z,40.79
2022-07-31T07:50:29.050Z,39.93
2022-07-31T07:52:57.309Z,39.80
2022-07-31T07:55:27.549Z,39.13
2022-07-31T07:58:11.400Z,38.88
2022-07-31T08:00:41.018Z,38.78
2022-07-31T08:03:50.071Z,38.22
2022-07-31T08:05:57.436Z,37.91
2022-07-31T08:08:25.777Z,38.02
2022-07-31T08:10:55.187Z,38.87
2022-07-31T08:13:23.839Z,39.42
2022-07-31T08:15:52.342Z,39.00
2022-07-31T08:18:21.580Z,39.21
2022-07-31T08:20:56.491Z,38.37
2022-07-31T08:23:24.497Z,38.25
2022-07-31T08:25:52.707Z,38.02
2022-07-31T08:28:25.575Z,37.69
2022-07-31T08:30:54.090Z,37.56
2022-07-31T08:33:22.522Z,37.08
2022-07-31T08:35:51.035Z,37.32
2022-07-31T08:38:19.722Z,38.08
2022-07-31T08:40:48.073Z,38.49
2022-07-31T08:46:08.017Z,37.84
2022-07-31T08:48:40.740Z,37.88
2022-07-31T08:51:12.567Z,38.64
2022-07-31T08:53:40.892Z,39.28
2022-07-31T08:56:10.765Z,39.53
2022-07-31T08:58:39.785Z,38.72
2022-07-31T09:01:13.571Z,38.56
2022-07-31T09:03:41.975Z,38.44
2022-07-31T09:06:11.087Z,38.75
2022-07-31T09:08:39.525Z,38.56
2022-07-31T09:11:09.911Z,38.01
2022-07-31T09:13:38.229Z,37.43
2022-07-31T09:16:07.096Z,37.31
2022-07-31T09:18:38.235Z,36.74
2022-07-31T09:21:07.335Z,36.60
2022-07-31T09:23:45.333Z,36.27
2022-07-31T09:26:13.764Z,36.41
2022-07-31T09:28:43.503Z,36.43
2022-07-31T09:31:12.299Z,36.11
2022-07-31T09:33:46.054Z,36.22
2022-07-31T09:36:15.292Z,36.11
2022-07-31T09:38:44.735Z,36.21
2022-07-31T09:41:56.926Z,36.51
2022-07-31T09:44:10.146Z,36.34
2022-07-31T09:46:42.616Z,36.13
2022-07-31T09:49:12.340Z,36.13
2022-07-31T09:51:41.153Z,36.03
2022-07-31T09:54:10.233Z,35.76
2022-07-31T09:56:39.790Z,35.72
2022-07-31T09:59:08.867Z,35.25
2022-07-31T10:01:42.853Z,34.93
2022-07-31T10:04:13.071Z,35.48
2022-07-31T10:06:42.124Z,35.25
2022-07-31T10:09:12.989Z,35.02
2022-07-31T10:11:41.965Z,34.46
2022-07-31T10:14:14.446Z,34.86
2022-07-31T10:16:43.356Z,35.36
2022-07-31T10:19:14.076Z,34.73
2022-07-31T10:21:43.989Z,34.51
2022-07-31T10:24:13.493Z,34.20
2022-07-31T10:27:00.759Z,34.95
2022-07-31T10:29:32.895Z,33.46
2022-07-31T10:32:02.067Z,33.65
2022-07-31T10:34:32.250Z,34.53
2022-07-31T10:37:11.298Z,34.33
2022-07-31T10:39:45.894Z,33.90
2022-07-31T10:42:19.452Z,34.42
2022-07-31T10:44:52.222Z,35.13
2022-07-31T10:47:20.480Z,34.98
2022-07-31T10:49:50.570Z,34.79
2022-07-31T10:52:30.980Z,34.27
2022-07-31T10:55:01.643Z,35.65
2022-07-31T10:57:31.014Z,36.20
2022-07-31T11:00:11.814Z,36.95
2022-07-31T11:02:40.640Z,37.47
2022-07-31T11:05:13.271Z,37.49
2022-07-31T11:07:42.364Z,37.95
2022-07-31T11:10:15.196Z,38.40
2022-07-31T11:12:43.323Z,39.15
2022-07-31T11:15:22.530Z,39.45
2022-07-31T11:18:21.040Z,39.42
2022-07-31T11:20:41.688Z,38.52
2022-07-31T11:23:10.598Z,38.29
2022-07-31T11:25:40.163Z,38.88
2022-07-31T11:28:12.672Z,39.50
2022-07-31T11:30:55.800Z,40.11
2022-07-31T11:33:41.678Z,40.32
2022-07-31T11:36:15.059Z,40.05
2022-07-31T11:38:44.766Z,40.40
2022-07-31T11:41:15.429Z,41.44
2022-07-31T11:43:45.089Z,41.57
2022-07-31T11:46:13.643Z,41.58
2022-07-31T11:48:45.536Z,41.88
2022-07-31T11:51:19.844Z,42.40
2022-07-31T11:53:56.922Z,42.71
2022-07-31T11:56:27.536Z,42.03
2022-07-31T11:58:59.242Z,42.31
2022-07-31T12:01:30.514Z,42.58
2022-07-31T12:04:08.523Z,42.65
2022-07-31T12:06:39.673Z,42.73
2022-07-31T12:10:02.385Z,42.16
2022-07-31T12:11:58.997Z,41.25
2022-07-31T12:14:31.467Z,39.93
2022-07-31T12:17:02.773Z,38.93
2022-07-31T12:19:37.421Z,38.89
2022-07-31T12:22:15.733Z,37.89
2022-07-31T12:24:44.167Z,38.66
2022-07-31T12:27:16.521Z,38.92
2022-07-31T12:29:45.239Z,39.08
2022-07-31T12:32:14.399Z,39.06
2022-07-31T12:34:43.966Z,38.94
2022-07-31T12:37:13.492Z,39.76
2022-07-31T12:40:00.395Z,39.40
2022-07-31T12:42:33.262Z,39.21
2022-07-31T12:45:19.126Z,39.36
2022-07-31T12:47:52.169Z,39.45
2022-07-31T12:50:22.729Z,38.88
2022-07-31T12:52:51.123Z,39.29
2022-07-31T12:55:22.721Z,39.43
2022-07-31T12:57:52.237Z,39.11
2022-07-31T13:00:22.902Z,38.43
2022-07-31T13:02:53.335Z,37.89
2022-07-31T13:05:22.181Z,37.91
2022-07-31T13:07:50.575Z,39.09
2022-07-31T13:10:23.661Z,38.66
2022-07-31T13:12:53.575Z,38.82
2022-07-31T13:15:31.928Z,38.93
2022-07-31T13:18:04.023Z,38.66
2022-07-31T13:20:32.781Z,39.03
2022-07-31T13:23:02.490Z,38.84
2022-07-31T13:25:32.164Z,38.46
2022-07-31T13:28:00.653Z,38.59
2022-07-31T13:30:29.217Z,38.94
2022-07-31T13:32:58.775Z,38.75
2022-07-31T13:35:29.072Z,39.11
2022-07-31T13:37:58.261Z,39.81
2022-07-31T13:40:40.721Z,40.18
2022-07-31T13:43:10.372Z,40.67
2022-07-31T13:45:38.615Z,40.89
2022-07-31T13:48:09.582Z,41.00
2022-07-31T13:50:39.974Z,40.90
2022-07-31T13:53:08.309Z,40.80
2022-07-31T13:55:36.772Z,40.11
2022-07-31T13:58:05.159Z,40.42
2022-07-31T14:00:34.596Z,40.75
2022-07-31T14:03:02.579Z,40.76
2022-07-31T14:05:37.308Z,40.84
2022-07-31T14:08:30.243Z,40.52
2022-07-31T14:10:58.868Z,40.66
2022-07-31T14:13:27.130Z,39.44
2022-07-31T14:16:00.398Z,40.16
2022-07-31T14:18:28.511Z,41.18
2022-07-31T14:20:56.899Z,41.24
2022-07-31T14:23:34.117Z,41.05
2022-07-31T14:26:05.116Z,41.14
2022-07-31T14:28:33.572Z,41.45
2022-07-31T14:31:06.810Z,41.66
2022-07-31T14:33:35.072Z,41.97
2022-07-31T14:36:03.854Z,41.62
2022-07-31T14:38:34.389Z,41.31
2022-07-31T14:41:06.018Z,41.01
2022-07-31T14:43:34.617Z,40.35
2022-07-31T14:46:04.108Z,40.76
2022-07-31T14:48:32.140Z,40.65
2022-07-31T14:51:03.044Z,40.71
2022-07-31T14:53:33.233Z,40.92
2022-07-31T14:56:03.705Z,40.55
2022-07-31T14:58:32.508Z,40.16
2022-07-31T15:01:21.847Z,40.15
2022-07-31T15:03:52.692Z,40.78
2022-07-31T15:06:39.799Z,39.96
2022-07-31T15:09:09.600Z,39.48
2022-07-31T15:12:00.886Z,39.50
2022-07-31T15:14:25.904Z,39.00
2022-07-31T15:16:56.547Z,39.26
2022-07-31T15:19:24.705Z,39.31
2022-07-31T15:22:10.778Z,39.32
2022-07-31T15:24:45.517Z,39.22
2022-07-31T15:27:18.565Z,38.87
2022-07-31T15:30:03.516Z,38.95
2022-07-31T15:32:36.188Z,39.16
2022-07-31T15:35:05.538Z,38.83
2022-07-31T15:37:37.911Z,38.74
2022-07-31T15:40:08.052Z,39.04
2022-07-31T15:42:40.166Z,39.17
2022-07-31T15:45:10.705Z,39.39
2022-07-31T15:47:41.523Z,39.28
2022-07-31T15:50:11.125Z,38.94
2022-07-31T15:52:39.999Z,38.95
2022-07-31T15:55:09.513Z,38.90
2022-07-31T15:57:37.692Z,39.13
2022-07-31T16:00:07.824Z,38.81
2022-07-31T16:02:37.475Z,38.72
2022-07-31T16:05:11.599Z,38.54
2022-07-31T16:08:29.260Z,38.71
2022-07-31T16:10:38.327Z,38.92
2022-07-31T16:13:07.357Z,39.38
2022-07-31T16:15:37.078Z,37.50
2022-07-31T16:18:07.340Z,38.36
2022-07-31T16:20:47.954Z,37.36
2022-07-31T16:23:16.242Z,37.08
2022-07-31T16:25:44.818Z,37.26
2022-07-31T16:28:13.125Z,37.30
2022-07-31T16:30:42.383Z,37.53
2022-07-31T16:33:11.033Z,37.17
2022-07-31T16:35:39.603Z,36.96
2022-07-31T16:38:10.280Z,37.26
2022-07-31T16:40:38.627Z,37.19
2022-07-31T16:43:47.277Z,37.37
2022-07-31T16:45:56.855Z,37.62
2022-07-31T16:48:28.330Z,37.89
2022-07-31T16:50:56.394Z,39.43
2022-07-31T16:54:12.939Z,40.17
2022-07-31T16:56:15.897Z,41.23
2022-07-31T16:58:44.858Z,40.30
2022-07-31T17:01:59.144Z,40.31
2022-07-31T17:04:04.035Z,40.73
2022-07-31T17:06:37.221Z,40.19
2022-07-31T17:09:17.509Z,41.27
2022-07-31T17:11:47.971Z,40.65
2022-07-31T17:14:17.751Z,40.66
2022-07-31T17:16:48.358Z,41.58
2022-07-31T17:19:41.813Z,40.39
2022-07-31T17:22:08.266Z,39.65
2022-07-31T17:24:41.606Z,39.89
2022-07-31T17:27:10.331Z,40.21
2022-07-31T17:29:39.560Z,40.02
2022-07-31T17:32:07.903Z,40.03
2022-07-31T17:34:39.937Z,40.22
2022-07-31T17:37:09.284Z,40.40
2022-07-31T17:39:39.330Z,40.31
2022-07-31T17:42:09.668Z,40.25
2022-07-31T17:44:41.053Z,40.16
2022-07-31T17:47:15.174Z,40.19
2022-07-31T17:49:43.582Z,40.23
2022-07-31T17:52:12.303Z,40.41
2022-07-31T17:54:40.885Z,40.46
2022-07-31T17:57:10.573Z,40.63
2022-07-31T17:59:38.671Z,40.83
2022-07-31T18:02:07.288Z,41.01
2022-07-31T18:04:37.734Z,41.15
2022-07-31T18:07:07.809Z,41.26
2022-07-31T18:09:36.768Z,41.45
2022-07-31T18:12:09.048Z,41.63
2022-07-31T18:14:45.307Z,41.74
2022-07-31T18:17:15.979Z,41.85
2022-07-31T18:19:44.312Z,42.04
2022-07-31T18:22:14.298Z,42.26
2022-07-31T18:24:43.831Z,42.60
2022-07-31T18:27:12.578Z,42.86
2022-07-31T18:29:42.479Z,42.99
2022-07-31T18:32:30.930Z,43.24
2022-07-31T18:34:59.848Z,43.51
2022-07-31T18:37:29.224Z,43.73
2022-07-31T18:39:58.952Z,43.98
2022-07-31T18:42:31.523Z,44.10
2022-07-31T18:45:02.105Z,44.32
2022-07-31T18:47:31.152Z,44.47
2022-07-31T18:50:59.786Z,44.58
2022-07-31T18:52:47.716Z,44.58
2022-07-31T18:55:15.855Z,44.77
2022-07-31T18:57:44.356Z,44.73
2022-07-31T19:00:15.183Z,44.83
2022-07-31T19:02:45.164Z,44.91
2022-07-31T19:05:21.510Z,44.79
2022-07-31T19:07:51.087Z,44.95
2022-07-31T19:10:29.229Z,45.29
2022-07-31T19:13:01.244Z,45.52
2022-07-31T19:15:33.104Z,45.76
2022-07-31T19:18:01.934Z,46.20
2022-07-31T19:20:51.741Z,46.43
2022-07-31T19:23:20.453Z,47.01
2022-07-31T19:26:02.232Z,47.07
2022-07-31T19:28:37.614Z,47.46
2022-07-31T19:31:07.342Z,47.70
2022-07-31T19:33:35.557Z,47.81
2022-07-31T19:36:03.830Z,47.65
2022-07-31T19:38:33.316Z,47.59
2022-07-31T19:41:03.063Z,47.98
2022-07-31T19:43:33.406Z,48.17
2022-07-31T19:46:11.728Z,49.30
2022-07-31T19:48:44.375Z,50.24
2022-07-31T19:51:14.577Z,49.81
2022-07-31T19:53:43.033Z,49.66
2022-07-31T19:56:15.646Z,49.57
2022-07-31T19:58:48.409Z,50.06
2022-07-31T20:01:20.217Z,49.12
2022-07-31T20:03:50.206Z,49.07
2022-07-31T20:06:19.585Z,48.52
2022-07-31T20:08:49.103Z,48.95
2022-07-31T20:11:18.228Z,48.23
2022-07-31T20:13:49.771Z,49.03
2022-07-31T20:16:18.066Z,49.11
2022-07-31T20:18:47.231Z,49.93
2022-07-31T20:21:18.263Z,50.35
2022-07-31T20:23:48.887Z,50.25
2022-07-31T20:26:17.641Z,50.62
2022-07-31T20:28:46.136Z,50.65
2022-07-31T20:31:16.020Z,50.62
2022-07-31T20:33:57.223Z,50.41
2022-07-31T20:36:28.208Z,50.25
2022-07-31T20:38:59.099Z,49.98
2022-07-31T20:41:28.200Z,49.99
2022-07-31T20:43:56.204Z,49.96
2022-07-31T20:46:25.260Z,50.29
2022-07-31T20:48:53.565Z,50.09
2022-07-31T20:51:23.364Z,50.18
2022-07-31T20:53:56.954Z,49.94
2022-07-31T20:56:25.630Z,49.71
2022-07-31T20:58:58.346Z,50.38
2022-07-31T21:01:26.868Z,49.63
2022-07-31T21:03:56.225Z,50.18
2022-07-31T21:06:25.342Z,49.84
2022-07-31T21:08:54.984Z,50.14
2022-07-31T21:11:31.724Z,50.38
2022-07-31T21:14:02.822Z,51.05
2022-07-31T21:16:36.120Z,51.12
2022-07-31T21:19:04.340Z,50.52
2022-07-31T21:21:32.837Z,51.00
2022-07-31T21:24:04.200Z,52.12
2022-07-31T21:26:33.160Z,52.83
2022-07-31T21:29:02.825Z,53.29
2022-07-31T21:31:32.547Z,53.31
2022-07-31T21:34:01.139Z,52.59
2022-07-31T21:36:29.748Z,52.62
2022-07-31T21:38:58.382Z,52.86
2022-07-31T21:41:28.635Z,53.17
2022-07-31T21:43:59.599Z,54.63
2022-07-31T21:46:29.276Z,56.08
2022-07-31T21:48:58.297Z,57.04
2022-07-31T21:51:27.428Z,57.59
2022-07-31T21:53:55.850Z,58.61
2022-07-31T21:56:24.509Z,58.89
2022-07-31T21:58:54.146Z,59.66
2022-07-31T22:01:22.375Z,60.08
2022-07-31T22:03:50.899Z,60.33
2022-07-31T22:06:45.190Z,60.07
2022-07-31T22:09:13.455Z,60.55
2022-07-31T22:12:01.360Z,60.76
2022-07-31T22:14:32.431Z,61.25
2022-07-31T22:17:00.524Z,61.67
2022-07-31T22:19:29.334Z,61.66
2022-07-31T22:21:59.650Z,62.37
2022-07-31T22:24:28.259Z,62.48
2022-07-31T22:27:16.765Z,63.25
2022-07-31T22:29:47.188Z,63.60
2022-07-31T22:32:18.002Z,64.02
2022-07-31T22:34:46.693Z,64.17
2022-07-31T22:37:15.611Z,64.44
2022-07-31T22:39:43.865Z,64.69
2022-07-31T22:42:12.451Z,65.03
2022-07-31T22:44:41.042Z,65.06
2022-07-31T22:47:10.879Z,65.33
2022-07-31T22:49:39.491Z,65.74
2022-07-31T22:52:08.300Z,66.15
2022-07-31T22:54:36.381Z,66.80
2022-07-31T22:57:04.899Z,67.93
2022-07-31T22:59:33.532Z,68.08
2022-07-31T23:02:04.357Z,68.40
2022-07-31T23:04:34.471Z,68.48
2022-07-31T23:07:03.017Z,68.76
2022-07-31T23:09:31.660Z,69.13
2022-07-31T23:12:00.402Z,69.14
2022-07-31T23:14:30.060Z,69.54
2022-07-31T23:16:58.510Z,69.68
2022-07-31T23:19:27.060Z,70.05
2022-07-31T23:21:56.427Z,70.24
2022-07-31T23:24:24.635Z,70.62
2022-07-31T23:26:52.811Z,70.99
2022-07-31T23:29:21.256Z,71.25
2022-07-31T23:31:49.773Z,71.54
2022-07-31T23:34:18.239Z,71.83
2022-07-31T23:36:46.667Z,72.03
2022-07-31T23:39:18.580Z,72.03
2022-07-31T23:42:04.737Z,72.47
2022-07-31T23:44:32.990Z,72.68
2022-07-31T23:47:08.826Z,72.89
2022-07-31T23:49:37.306Z,73.09
2022-07-31T23:52:07.061Z,73.30
2022-07-31T23:54:36.941Z,73.27
2022-07-31T23:57:07.821Z,73.57
2022-07-31T23:59:36.252Z,73.76
